Time;durP1;ratioP1;P1;durP2;ratioP2;P2;SDS_P1;SDS_P2;PMS_P1;PMS_P2;Temp;Humidity;BMP_temperature;BMP_pressure;BME280_temperature;BME280_humidity;BME280_pressure;Samples;Min_cycle;Max_cycle;Signal;HPM_P1;HPM_P2
2021/06/28 00:01:55;;;;;;;6.30;5.17;;;;;;;19.91;81.91;99069.72;1843373;77;20990;-72
2021/06/28 00:04:21;;;;;;;5.55;4.90;;;;;;;19.93;82.03;99067.92;1821091;77;21048;-73
2021/06/28 00:06:48;;;;;;;8.33;5.37;;;;;;;19.92;81.97;99064.34;1841624;77;21103;-73
2021/06/28 00:09:14;;;;;;;5.92;5.15;;;;;;;19.90;82.02;99066.73;1819195;77;21477;-73
2021/06/28 00:11:42;;;;;;;14.10;4.92;;;;;;;19.92;82.02;99071.93;1831936;77;21032;-73
2021/06/28 00:14:08;;;;;;;8.90;5.08;;;;;;;19.91;81.91;99075.31;1832078;77;20980;-74
2021/06/28 00:16:36;;;;;;;5.80;5.03;;;;;;;19.91;82.01;99072.52;1845544;77;21054;-73
2021/06/28 00:19:03;;;;;;;6.53;5.33;;;;;;;19.92;81.96;99085.31;1839278;77;21090;-75
2021/06/28 00:21:31;;;;;;;4.37;3.98;;;;;;;19.88;81.94;99080.30;1820353;77;21536;-71
2021/06/28 00:23:57;;;;;;;5.92;5.08;;;;;;;19.89;82.03;99087.48;1822132;77;21517;-73
2021/06/28 00:26:25;;;;;;;7.78;4.85;;;;;;;19.88;82.02;99096.26;1828324;78;21054;-73
2021/06/28 00:28:52;;;;;;;5.28;4.78;;;;;;;19.89;82.21;99094.47;1831724;77;21066;-74
2021/06/28 00:31:18;;;;;;;5.58;4.97;;;;;;;19.94;82.12;99094.08;1828305;77;21814;-74
2021/06/28 00:33:45;;;;;;;7.40;4.92;;;;;;;19.95;81.82;99089.30;1828800;77;21011;-74
2021/06/28 00:36:12;;;;;;;5.25;4.72;;;;;;;19.93;81.81;99086.09;1828693;78;21047;-73
2021/06/28 00:38:40;;;;;;;5.12;4.62;;;;;;;19.91;81.67;99084.28;1832517;77;21070;-72
2021/06/28 00:41:07;;;;;;;9.15;5.12;;;;;;;19.91;81.79;99079.50;1841321;77;21471;-73
2021/06/28 00:43:35;;;;;;;6.17;5.12;;;;;;;19.89;81.48;99084.68;1844344;77;21144;-73
2021/06/28 00:46:01;;;;;;;11.78;5.05;;;;;;;19.87;81.46;99092.69;1809197;78;21018;-74
2021/06/28 00:48:27;;;;;;;5.40;4.65;;;;;;;19.84;81.49;99086.46;1807803;78;21010;-72
2021/06/28 00:50:56;;;;;;;8.95;5.42;;;;;;;19.88;81.41;99087.88;1817061;77;21024;-74
2021/06/28 00:53:24;;;;;;;10.03;5.97;;;;;;;19.86;81.30;99087.48;1835901;77;21073;-73
2021/06/28 00:55:53;;;;;;;7.65;4.67;;;;;;;19.81;81.37;99082.48;1822257;77;21508;-72
2021/06/28 00:58:19;;;;;;;6.15;4.83;;;;;;;19.83;81.33;99083.47;1822262;77;21036;-71
2021/06/28 01:00:46;;;;;;;5.67;5.05;;;;;;;19.82;81.09;99088.25;1821863;77;20995;-72
2021/06/28 01:03:13;;;;;;;6.67;5.35;;;;;;;19.78;80.99;99093.05;1831513;77;21008;-73
2021/06/28 01:05:40;;;;;;;6.05;5.33;;;;;;;19.72;80.92;99095.22;1828272;77;21019;-73
2021/06/28 01:08:07;;;;;;;6.87;5.00;;;;;;;19.67;81.16;99096.41;1831081;77;21075;-73
2021/06/28 01:10:33;;;;;;;8.05;5.62;;;;;;;19.66;81.28;99098.98;1844831;77;21015;-72
2021/06/28 01:13:00;;;;;;;8.73;5.70;;;;;;;19.63;81.15;99101.16;1840725;77;21568;-73
2021/06/28 01:15:27;;;;;;;7.25;5.30;;;;;;;19.61;81.30;99107.15;1838180;77;21039;-73
2021/06/28 01:17:54;;;;;;;10.90;5.45;;;;;;;19.58;81.30;99111.52;1843985;77;21000;-73
2021/06/28 01:20:25;;;;;;;7.85;5.65;;;;;;;19.55;81.46;99108.72;1842493;77;21117;-73
2021/06/28 01:22:55;;;;;;;6.15;5.05;;;;;;;19.51;81.32;99107.89;1840372;77;21008;-74
2021/06/28 01:25:24;;;;;;;7.95;5.20;;;;;;;19.45;81.37;99095.70;1838281;77;21527;-73
2021/06/28 01:27:51;;;;;;;5.97;5.00;;;;;;;19.39;81.51;99095.88;1839490;77;21027;-72
2021/06/28 01:30:21;;;;;;;6.97;4.90;;;;;;;19.32;81.68;99109.79;1839984;77;20976;-73
2021/06/28 01:32:49;;;;;;;7.65;5.28;;;;;;;19.27;81.67;99109.56;1814143;78;21746;-71
2021/06/28 01:35:15;;;;;;;7.17;5.00;;;;;;;19.21;81.99;99113.31;1828836;78;21030;-72
2021/06/28 01:37:42;;;;;;;11.05;4.85;;;;;;;19.18;82.15;99101.53;1814986;77;21071;-72
2021/06/28 01:40:11;;;;;;;6.10;5.12;;;;;;;19.16;82.18;99105.30;1842291;77;21054;-72
2021/06/28 01:42:37;;;;;;;9.05;5.47;;;;;;;19.14;82.30;99113.88;1823617;77;20977;-73
2021/06/28 01:45:06;;;;;;;7.20;5.55;;;;;;;19.10;82.37;99116.61;1826813;77;21128;-71
2021/06/28 01:47:33;;;;;;;6.40;5.25;;;;;;;19.08;82.51;99114.20;1845088;77;20987;-72
2021/06/28 01:49:59;;;;;;;5.33;4.83;;;;;;;19.07;82.64;99120.19;1811399;78;20999;-72
2021/06/28 01:52:26;;;;;;;8.78;5.60;;;;;;;19.08;82.66;99118.39;1819772;77;21061;-72
2021/06/28 01:54:53;;;;;;;5.40;4.80;;;;;;;19.04;82.57;99118.17;1826837;77;20995;-71
2021/06/28 01:57:19;;;;;;;7.87;5.58;;;;;;;18.99;82.76;99123.50;1827751;77;22114;-72
2021/06/28 01:59:46;;;;;;;9.20;5.33;;;;;;;19.02;82.99;99123.33;1808300;78;21553;-72
2021/06/28 02:02:12;;;;;;;9.23;5.10;;;;;;;19.03;82.87;99119.34;1821078;77;21058;-73
2021/06/28 02:04:38;;;;;;;5.62;4.90;;;;;;;19.03;82.78;99124.92;1815707;78;21000;-73
2021/06/28 02:07:07;;;;;;;7.55;4.95;;;;;;;19.00;82.75;99120.12;1843878;77;21535;-73
2021/06/28 02:09:37;;;;;;;8.05;5.28;;;;;;;19.00;82.82;99115.94;1819460;77;21101;-73
2021/06/28 02:12:04;;;;;;;6.78;5.20;;;;;;;18.96;82.91;99119.50;1832022;77;21000;-72
2021/06/28 02:14:30;;;;;;;8.23;5.35;;;;;;;18.92;83.11;99122.07;1843308;77;20967;-72
2021/06/28 02:16:57;;;;;;;9.23;5.33;;;;;;;18.91;83.14;99115.68;1811627;78;21014;-74
2021/06/28 02:19:25;;;;;;;6.28;4.97;;;;;;;18.92;83.22;99118.66;1807514;78;21049;-72
2021/06/28 02:21:52;;;;;;;16.52;5.70;;;;;;;18.93;83.12;99117.49;1804434;78;21128;-71
2021/06/28 02:24:20;;;;;;;10.25;5.12;;;;;;;18.92;83.01;99122.85;1820042;77;21012;-73
2021/06/28 02:26:47;;;;;;;7.50;6.03;;;;;;;18.94;83.20;99121.06;1821292;78;21015;-72
2021/06/28 02:29:14;;;;;;;9.78;5.08;;;;;;;19.01;83.31;99125.90;1822207;77;21089;-73
2021/06/28 02:31:42;;;;;;;11.12;6.05;;;;;;;19.04;83.10;99128.72;1817826;77;20984;-73
2021/06/28 02:34:08;;;;;;;6.45;5.33;;;;;;;19.06;82.90;99131.94;1835151;77;21125;-72
2021/06/28 02:36:36;;;;;;;9.55;6.08;;;;;;;19.08;82.70;99132.35;1824039;77;21043;-73
2021/06/28 02:39:05;;;;;;;11.25;5.97;;;;;;;19.12;82.89;99124.03;1840536;77;21736;-73
2021/06/28 02:41:32;;;;;;;7.42;5.60;;;;;;;19.20;82.76;99122.89;1826693;77;21035;-70
2021/06/28 02:43:59;;;;;;;8.93;5.35;;;;;;;19.26;82.07;99123.31;1835125;77;21525;-73
2021/06/28 02:46:25;;;;;;;11.35;6.42;;;;;;;19.21;82.11;99121.69;1844454;77;21108;-71
2021/06/28 02:48:52;;;;;;;10.88;6.45;;;;;;;19.23;81.99;99132.47;1843300;77;20963;-72
2021/06/28 02:51:18;;;;;;;10.20;6.20;;;;;;;19.25;81.96;99133.47;1808908;78;20991;-73
2021/06/28 02:53:45;;;;;;;7.78;5.72;;;;;;;19.26;81.80;99137.27;1806944;78;21187;-72
2021/06/28 02:56:20;;;;;;;9.58;6.03;;;;;;;19.29;81.70;99128.73;1810404;78;21481;-72
2021/06/28 02:58:56;;;;;;;14.68;7.28;;;;;;;19.30;81.54;99130.31;1795354;78;21092;-72
2021/06/28 03:01:24;;;;;;;19.62;6.60;;;;;;;19.28;81.58;99129.89;1812487;77;21004;-73
2021/06/28 03:03:51;;;;;;;6.95;5.80;;;;;;;19.31;81.55;99142.48;1820002;77;20993;-73
2021/06/28 03:06:18;;;;;;;9.00;5.87;;;;;;;19.31;81.23;99143.11;1830679;77;21485;-73
2021/06/28 03:08:45;;;;;;;11.30;6.60;;;;;;;19.21;80.98;99144.03;1828615;77;21106;-72
2021/06/28 03:11:13;;;;;;;9.10;6.10;;;;;;;19.09;81.06;99144.30;1841203;77;21138;-72
2021/06/28 03:13:40;;;;;;;9.53;6.08;;;;;;;19.01;81.78;99146.25;1814054;77;20920;-72
2021/06/28 03:16:07;;;;;;;8.08;5.70;;;;;;;19.00;81.69;99147.45;1825042;77;21363;-73
2021/06/28 03:18:34;;;;;;;11.05;6.30;;;;;;;18.94;82.06;99147.58;1799017;78;20893;-71
2021/06/28 03:21:02;;;;;;;11.38;6.28;;;;;;;18.95;82.16;99140.83;1823007;77;20881;-73
2021/06/28 03:23:28;;;;;;;11.40;6.40;;;;;;;18.93;81.83;99150.98;1831852;77;21081;-73
2021/06/28 03:25:56;;;;;;;8.85;5.67;;;;;;;18.89;82.16;99147.94;1829673;78;20888;-73
2021/06/28 03:28:23;;;;;;;12.05;6.62;;;;;;;18.95;82.53;99147.80;1829170;78;20916;-73
2021/06/28 03:30:50;;;;;;;12.13;6.55;;;;;;;18.98;82.25;99149.23;1831787;77;20897;-72
2021/06/28 03:33:16;;;;;;;10.82;6.90;;;;;;;18.97;81.66;99153.20;1832242;77;20892;-73
2021/06/28 03:35:42;;;;;;;9.63;6.17;;;;;;;18.89;81.67;99154.33;1834510;77;21133;-73
2021/06/28 03:38:09;;;;;;;9.25;6.92;;;;;;;18.88;81.98;99151.92;1830097;77;21471;-71
2021/06/28 03:40:36;;;;;;;11.93;6.35;;;;;;;18.90;82.40;99156.53;1828321;77;21275;-72
2021/06/28 03:43:05;;;;;;;10.25;6.33;;;;;;;18.97;82.39;99154.59;1830626;77;20929;-71
2021/06/28 03:45:31;;;;;;;8.65;5.12;;;;;;;19.02;82.20;99165.98;1834886;77;20884;-72
2021/06/28 03:47:58;;;;;;;11.15;6.08;;;;;;;18.98;81.51;99153.42;1829934;77;21834;-71
2021/06/28 03:50:24;;;;;;;9.85;5.92;;;;;;;18.93;81.62;99156.56;1827244;77;21505;-72
2021/06/28 03:52:51;;;;;;;13.35;6.08;;;;;;;18.93;81.75;99156.56;1829771;77;20853;-72
2021/06/28 03:55:18;;;;;;;9.10;5.78;;;;;;;18.94;81.90;99152.58;1843120;77;20916;-72
2021/06/28 03:57:44;;;;;;;10.72;5.62;;;;;;;18.96;81.77;99158.58;1825895;77;20979;-73
2021/06/28 04:00:14;;;;;;;10.40;6.90;;;;;;;19.00;81.87;99157.22;1841454;77;21452;-72
2021/06/28 04:02:42;;;;;;;12.37;6.35;;;;;;;19.04;81.34;99161.44;1821277;77;20879;-73
2021/06/28 04:05:17;;;;;;;10.93;6.17;;;;;;;19.02;81.09;99161.80;1840569;77;20856;-72
2021/06/28 04:07:43;;;;;;;6.47;5.78;;;;;;;19.02;81.43;99159.62;1845795;77;20911;-72
2021/06/28 04:10:10;;;;;;;12.50;6.47;;;;;;;19.05;81.56;99154.66;1841279;77;20875;-72
2021/06/28 04:12:37;;;;;;;10.13;6.47;;;;;;;19.09;81.22;99152.09;1838813;77;21116;-72
2021/06/28 04:15:09;;;;;;;12.53;5.67;;;;;;;19.07;81.25;99148.09;1838245;77;20923;-71
2021/06/28 04:17:39;;;;;;;10.50;5.90;;;;;;;19.07;81.00;99153.68;1819697;78;20873;-72
2021/06/28 04:20:08;;;;;;;9.38;5.85;;;;;;;19.05;80.83;99149.88;1841912;77;20903;-73
2021/06/28 04:22:34;;;;;;;10.68;6.50;;;;;;;19.05;81.01;99147.09;1823817;77;21482;-73
2021/06/28 04:25:05;;;;;;;9.55;5.80;;;;;;;19.12;81.45;99149.16;1824400;77;21118;-72
2021/06/28 04:27:32;;;;;;;10.50;6.05;;;;;;;19.24;81.14;99148.05;1844987;77;20839;-73
2021/06/28 04:29:59;;;;;;;10.72;6.53;;;;;;;19.32;80.75;99154.47;1843178;77;20902;-74
2021/06/28 04:32:25;;;;;;;11.35;6.20;;;;;;;19.34;80.42;99147.91;1818641;77;21462;-74
2021/06/28 04:34:53;;;;;;;10.68;6.33;;;;;;;19.43;80.52;99153.16;1825322;77;20850;-73
2021/06/28 04:37:20;;;;;;;8.88;5.90;;;;;;;19.46;80.20;99153.15;1830275;77;21066;-72
2021/06/28 04:39:46;;;;;;;11.22;6.60;;;;;;;19.51;80.12;99149.80;1830549;78;20897;-72
2021/06/28 04:42:12;;;;;;;7.53;5.72;;;;;;;19.57;79.96;99149.03;1829670;77;21441;-73
2021/06/28 04:44:39;;;;;;;10.58;5.58;;;;;;;19.63;79.50;99143.08;1842744;77;20872;-73
2021/06/28 04:47:06;;;;;;;7.30;5.40;;;;;;;19.63;79.37;99152.86;1842556;77;20864;-72
2021/06/28 04:49:32;;;;;;;6.45;5.62;;;;;;;19.70;79.30;99146.69;1841202;77;21822;-73
2021/06/28 04:51:59;;;;;;;8.08;5.85;;;;;;;19.74;78.58;99140.34;1843859;77;20895;-73
2021/06/28 04:54:25;;;;;;;8.45;5.90;;;;;;;19.74;78.77;99138.95;1843931;77;21370;-72
2021/06/28 04:56:52;;;;;;;9.90;5.33;;;;;;;19.84;78.54;99142.36;1839180;77;21429;-72
2021/06/28 04:59:19;;;;;;;10.00;5.70;;;;;;;19.90;78.07;99149.78;1842298;77;20864;-75
2021/06/28 05:01:45;;;;;;;7.72;5.30;;;;;;;19.93;78.11;99147.59;1842509;77;21065;-74
2021/06/28 05:04:12;;;;;;;8.35;5.60;;;;;;;20.03;78.17;99143.23;1844684;77;20891;-72
2021/06/28 05:06:38;;;;;;;14.95;6.40;;;;;;;20.13;77.46;99148.09;1841289;77;20903;-73
2021/06/28 05:09:05;;;;;;;8.63;5.35;;;;;;;20.18;77.33;99139.94;1843634;77;21556;-71
2021/06/28 05:11:31;;;;;;;8.73;4.60;;;;;;;20.22;77.50;99148.30;1844123;77;20828;-74
2021/06/28 05:13:57;;;;;;;6.97;5.05;;;;;;;20.26;76.95;99142.95;1847192;77;21056;-74
2021/06/28 05:16:25;;;;;;;8.63;5.80;;;;;;;20.31;76.36;99150.14;1842926;77;20914;-73
2021/06/28 05:18:51;;;;;;;6.47;4.72;;;;;;;20.34;75.76;99154.94;1841299;77;20883;-73
2021/06/28 05:21:19;;;;;;;6.12;5.35;;;;;;;20.34;75.51;99148.53;1845512;77;20911;-74
2021/06/28 05:23:46;;;;;;;8.18;4.25;;;;;;;20.34;75.14;99149.34;1840671;77;20882;-73
2021/06/28 05:26:12;;;;;;;7.17;4.92;;;;;;;20.29;74.90;99146.94;1844550;77;21070;-74
2021/06/28 05:28:38;;;;;;;11.45;5.37;;;;;;;20.28;75.04;99143.33;1839555;77;20911;-73
2021/06/28 05:31:05;;;;;;;7.12;4.53;;;;;;;20.31;74.46;99139.77;1831348;77;20908;-74
2021/06/28 05:33:31;;;;;;;7.87;4.62;;;;;;;20.33;74.65;99138.56;1828758;77;20967;-72
2021/06/28 05:35:59;;;;;;;7.78;4.12;;;;;;;20.37;74.29;99138.76;1832583;77;20921;-73
2021/06/28 05:38:26;;;;;;;5.70;5.10;;;;;;;20.41;73.99;99144.36;1833264;77;21801;-73
2021/06/28 05:40:52;;;;;;;11.25;4.92;;;;;;;20.52;74.18;99147.97;1831097;77;20842;-72
2021/06/28 05:43:18;;;;;;;9.30;4.85;;;;;;;20.68;72.80;99146.20;1832326;77;21366;-73
2021/06/28 05:45:45;;;;;;;8.10;4.60;;;;;;;20.77;72.63;99146.41;1832198;77;21402;-73
2021/06/28 05:48:12;;;;;;;7.65;4.15;;;;;;;20.85;71.78;99145.20;1824809;78;20931;-73
2021/06/28 05:50:39;;;;;;;6.92;4.90;;;;;;;20.90;71.21;99141.20;1835032;77;21441;-73
2021/06/28 05:53:06;;;;;;;5.60;4.78;;;;;;;20.95;71.00;99135.84;1829936;77;20921;-73
2021/06/28 05:55:32;;;;;;;7.47;4.10;;;;;;;21.04;71.29;99146.84;1825908;77;21473;-74
2021/06/28 05:57:59;;;;;;;9.68;4.08;;;;;;;21.14;70.92;99145.22;1843582;77;20907;-73
2021/06/28 06:00:25;;;;;;;7.17;3.72;;;;;;;21.24;70.72;99152.63;1848906;77;20836;-73
2021/06/28 06:02:51;;;;;;;8.40;4.20;;;;;;;21.32;70.64;99147.20;1838694;77;21733;-74
2021/06/28 06:05:18;;;;;;;8.33;4.70;;;;;;;21.40;70.00;99151.59;1848641;77;20891;-73
2021/06/28 06:07:44;;;;;;;14.83;3.98;;;;;;;21.49;70.34;99148.37;1846209;77;20872;-73
2021/06/28 06:10:15;;;;;;;9.68;4.92;;;;;;;21.63;69.42;99147.52;1846389;77;21474;-74
2021/06/28 06:12:41;;;;;;;4.30;3.65;;;;;;;21.69;68.97;99161.11;1812903;78;20939;-73
2021/06/28 06:15:09;;;;;;;5.80;4.15;;;;;;;21.67;68.81;99154.52;1826312;77;21728;-73
2021/06/28 06:17:36;;;;;;;9.25;3.83;;;;;;;21.72;68.77;99146.28;1833157;77;20893;-75
2021/06/28 06:20:05;;;;;;;8.35;4.50;;;;;;;21.78;68.91;99144.67;1859599;77;21453;-74
2021/06/28 06:22:31;;;;;;;8.13;4.42;;;;;;;21.91;69.03;99144.23;1820923;77;21387;-75
2021/06/28 06:24:57;;;;;;;5.00;3.87;;;;;;;22.05;68.61;99147.58;1824065;77;21426;-73
2021/06/28 06:27:24;;;;;;;6.58;3.67;;;;;;;22.14;68.16;99157.77;1826924;77;21254;-72
2021/06/28 06:29:50;;;;;;;5.15;3.77;;;;;;;22.15;66.85;99157.14;1831809;77;20869;-74
2021/06/28 06:32:16;;;;;;;8.55;3.47;;;;;;;22.16;67.64;99158.14;1841378;77;20869;-74
2021/06/28 06:34:42;;;;;;;12.23;4.35;;;;;;;22.20;67.81;99159.52;1843872;77;20885;-72
2021/06/28 06:37:09;;;;;;;8.05;3.83;;;;;;;22.21;66.80;99161.14;1843340;77;20854;-72
2021/06/28 06:39:36;;;;;;;4.83;3.50;;;;;;;22.29;67.20;99163.29;1843038;77;21075;-73
2021/06/28 06:42:03;;;;;;;13.88;3.83;;;;;;;22.33;66.46;99169.06;1839489;77;20943;-72
2021/06/28 06:44:29;;;;;;;4.58;3.60;;;;;;;22.25;66.41;99164.11;1812821;77;20918;-74
2021/06/28 06:46:56;;;;;;;9.60;4.33;;;;;;;22.11;65.89;99166.38;1802663;78;20893;-73
2021/06/28 06:49:22;;;;;;;4.37;3.00;;;;;;;21.97;66.74;99168.64;1822689;77;21426;-73
2021/06/28 06:51:49;;;;;;;6.00;3.30;;;;;;;21.93;67.06;99177.69;1818389;77;21036;-72
2021/06/28 06:54:16;;;;;;;3.55;3.25;;;;;;;21.99;67.52;99173.87;1816545;77;20858;-72
2021/06/28 06:56:43;;;;;;;5.62;2.80;;;;;;;22.13;67.13;99180.80;1841884;77;20876;-72
2021/06/28 06:59:09;;;;;;;5.87;3.10;;;;;;;22.23;66.57;99181.14;1825654;77;20933;-72
2021/06/28 07:01:37;;;;;;;7.50;3.40;;;;;;;22.20;65.50;99184.77;1814508;77;20944;-73
2021/06/28 07:04:03;;;;;;;4.35;3.27;;;;;;;22.13;65.60;99185.02;1840030;77;21886;-71
2021/06/28 07:06:30;;;;;;;8.45;3.85;;;;;;;22.09;66.12;99189.05;1842608;77;20825;-71
2021/06/28 07:08:57;;;;;;;8.25;3.98;;;;;;;22.08;66.49;99193.03;1809950;78;21425;-71
2021/06/28 07:11:25;;;;;;;6.47;3.60;;;;;;;22.01;66.25;99194.67;1839198;77;20836;-71
2021/06/28 07:13:52;;;;;;;14.20;3.70;;;;;;;22.01;66.41;99200.87;1819959;77;20949;-73
2021/06/28 07:16:23;;;;;;;3.70;3.00;;;;;;;22.04;66.04;99199.28;1838436;77;21086;-71
2021/06/28 07:18:49;;;;;;;4.42;3.10;;;;;;;22.03;65.67;99201.28;1825596;77;20841;-71
2021/06/28 07:21:15;;;;;;;4.42;3.60;;;;;;;22.04;65.67;99204.89;1829852;77;21004;-71
2021/06/28 07:23:45;;;;;;;8.23;3.20;;;;;;;22.03;65.98;99205.48;1825382;77;20912;-71
2021/06/28 07:26:12;;;;;;;4.42;3.10;;;;;;;22.00;66.62;99203.50;1829911;77;21496;-70
2021/06/28 07:28:40;;;;;;;9.35;3.98;;;;;;;21.94;66.51;99202.33;1830627;77;21067;-71
2021/06/28 07:31:06;;;;;;;7.83;3.72;;;;;;;21.91;66.86;99200.31;1830122;77;20845;-74
2021/06/28 07:33:38;;;;;;;5.12;3.20;;;;;;;21.89;66.37;99198.73;1841002;77;20860;-74
2021/06/28 07:36:01;;;;;;;7.97;3.15;;;;;;;21.91;67.15;99200.31;1822095;77;21460;-72
2021/06/28 07:38:27;;;;;;;10.55;3.27;;;;;;;21.95;66.62;99200.52;1837019;77;21091;-74
2021/06/28 07:40:53;;;;;;;10.03;3.77;;;;;;;21.99;66.80;99201.91;1826499;77;21426;-74
2021/06/28 07:43:20;;;;;;;5.35;3.37;;;;;;;22.07;67.12;99199.27;1828675;78;20893;-74
2021/06/28 07:45:47;;;;;;;5.97;2.62;;;;;;;22.23;67.28;99194.58;1819257;77;21431;-73
2021/06/28 07:48:15;;;;;;;4.35;3.42;;;;;;;22.35;66.33;99200.33;1838117;77;20879;-74
2021/06/28 07:50:43;;;;;;;5.67;3.02;;;;;;;22.45;66.22;99196.48;1819931;77;21473;-74
2021/06/28 07:53:10;;;;;;;4.45;3.45;;;;;;;22.54;66.34;99196.00;1817570;77;21073;-75
2021/06/28 07:55:39;;;;;;;6.92;3.90;;;;;;;22.64;65.55;99198.61;1804693;78;20890;-75
2021/06/28 07:58:06;;;;;;;12.33;3.85;;;;;;;22.73;65.89;99203.95;1815708;77;20931;-72
2021/06/28 08:00:33;;;;;;;10.72;3.33;;;;;;;22.86;64.84;99204.25;1817644;77;21081;-72
2021/06/28 08:03:00;;;;;;;3.33;3.02;;;;;;;22.98;65.05;99195.13;1821111;77;20850;-74
2021/06/28 08:05:27;;;;;;;5.12;3.20;;;;;;;23.13;64.70;99204.26;1819131;77;21107;-75
2021/06/28 08:07:54;;;;;;;6.72;2.70;;;;;;;23.27;63.79;99204.72;1829876;77;20864;-74
2021/06/28 08:10:21;;;;;;;5.53;4.12;;;;;;;23.34;63.36;99210.28;1832910;77;20909;-75
2021/06/28 08:12:48;;;;;;;6.58;3.45;;;;;;;23.38;63.72;99206.03;1830664;77;20893;-77
2021/06/28 08:15:18;;;;;;;5.80;3.30;;;;;;;23.43;64.19;99208.42;1829015;77;20911;-75
2021/06/28 08:17:44;;;;;;;3.17;2.83;;;;;;;23.48;63.11;99218.41;1830339;77;21137;-78
2021/06/28 08:20:12;;;;;;;10.63;3.05;;;;;;;23.42;62.46;99219.45;1831138;77;21419;-77
2021/06/28 08:22:39;;;;;;;12.05;2.80;;;;;;;23.32;61.89;99220.35;1830911;77;20907;-76
2021/06/28 08:25:07;;;;;;;5.12;3.22;;;;;;;23.29;62.50;99219.16;1828857;77;20892;-76
2021/06/28 08:27:34;;;;;;;8.98;3.58;;;;;;;23.30;63.19;99219.97;1831000;77;20849;-74
2021/06/28 08:30:06;;;;;;;10.63;3.70;;;;;;;23.34;63.42;99218.71;1831996;77;21469;-74
2021/06/28 08:32:33;;;;;;;7.45;2.90;;;;;;;23.38;62.95;99220.09;1830239;78;20881;-80
2021/06/28 08:35:00;;;;;;;6.25;3.05;;;;;;;23.42;63.71;99217.27;1833606;77;20853;-79
2021/06/28 08:37:29;;;;;;;9.23;3.62;;;;;;;23.50;63.57;99215.19;1826385;77;20950;-80
2021/06/28 08:39:55;;;;;;;7.97;3.30;;;;;;;23.58;63.38;99219.52;1832305;77;20845;-78
2021/06/28 08:42:21;;;;;;;9.03;2.72;;;;;;;23.64;62.36;99217.86;1829001;77;21099;-78
2021/06/28 08:44:48;;;;;;;8.90;3.72;;;;;;;23.69;61.87;99217.41;1829557;77;20950;-78
2021/06/28 08:47:16;;;;;;;8.73;2.95;;;;;;;23.73;60.81;99221.56;1830697;78;21429;-78
2021/06/28 08:49:42;;;;;;;3.85;2.60;;;;;;;23.71;59.89;99222.61;1829543;77;20873;-72
2021/06/28 08:52:09;;;;;;;4.65;3.10;;;;;;;23.67;60.44;99224.05;1830064;77;20885;-72
2021/06/28 08:54:35;;;;;;;6.33;3.00;;;;;;;23.66;60.95;99232.28;1832166;77;21763;-75
2021/06/28 08:57:02;;;;;;;5.75;3.12;;;;;;;23.59;60.49;99224.72;1836629;77;20949;-75
2021/06/28 08:59:29;;;;;;;4.67;3.00;;;;;;;23.62;60.49;99239.16;1827738;77;20919;-75
2021/06/28 09:01:55;;;;;;;9.15;3.55;;;;;;;23.69;60.59;99234.28;1812957;78;20899;-73
2021/06/28 09:04:21;;;;;;;12.70;3.67;;;;;;;23.82;60.77;99235.94;1828864;78;20898;-71
2021/06/28 09:06:48;;;;;;;12.20;3.87;;;;;;;23.95;59.06;99241.03;1819775;77;21086;-74
2021/06/28 09:09:16;;;;;;;12.00;3.95;;;;;;;23.94;59.75;99236.61;1821645;77;21394;-71
2021/06/28 09:11:49;;;;;;;7.40;3.02;;;;;;;24.01;59.73;99241.36;1826162;77;21444;-68
2021/06/28 09:14:16;;;;;;;6.75;3.17;;;;;;;24.13;60.21;99244.23;1833764;77;20876;-71
2021/06/28 09:16:45;;;;;;;6.80;3.02;;;;;;;24.23;58.38;99236.30;1822893;77;20919;-73
2021/06/28 09:19:18;;;;;;;7.87;3.25;;;;;;;24.22;58.93;99239.54;1843379;77;21742;-71
2021/06/28 09:21:51;;;;;;;11.47;3.00;;;;;;;24.30;58.88;99244.66;1821606;77;20875;-74
2021/06/28 09:24:37;;;;;;;9.15;4.03;;;;;;;24.30;58.88;99244.66;1819887;77;21291;-71
2021/06/28 09:27:16;;;;;;;4.58;3.02;;;;;;;24.43;59.06;99239.25;1821634;77;21416;-72
2021/06/28 09:29:57;;;;;;;4.17;3.02;;;;;;;24.59;58.67;99249.70;1846062;77;21380;-72
2021/06/28 09:32:24;;;;;;;10.10;2.87;;;;;;;24.67;57.62;99241.34;1838280;77;21070;-74
2021/06/28 09:34:53;;;;;;;6.65;3.12;;;;;;;24.71;58.16;99244.11;1832366;77;20839;-72
2021/06/28 09:37:25;;;;;;;9.48;3.22;;;;;;;24.73;57.20;99247.30;1831219;77;20877;-72
2021/06/28 09:39:58;;;;;;;8.55;3.50;;;;;;;24.66;57.60;99244.79;1829608;77;20914;-72
2021/06/28 09:42:29;;;;;;;5.08;3.20;;;;;;;24.61;56.70;99241.64;1833440;77;21478;-72
2021/06/28 09:45:10;;;;;;;5.58;2.90;;;;;;;24.56;58.10;99254.18;1830787;77;21097;-73
2021/06/28 09:47:36;;;;;;;7.70;3.00;;;;;;;24.51;58.26;99251.83;1831623;77;20857;-72
2021/06/28 09:50:15;;;;;;;5.50;3.40;;;;;;;24.53;58.11;99247.36;1829523;77;20901;-73
2021/06/28 09:52:51;;;;;;;3.62;3.02;;;;;;;24.59;57.34;99253.33;1829391;77;20928;-73
2021/06/28 09:55:25;;;;;;;8.63;2.92;;;;;;;24.59;56.97;99250.52;1836149;77;21450;-73
2021/06/28 09:58:09;;;;;;;5.00;3.25;;;;;;;24.59;57.00;99256.14;1831825;77;21756;-74
2021/06/28 10:00:47;;;;;;;3.70;2.72;;;;;;;24.57;57.65;99252.95;1821371;77;21422;-70
2021/06/28 10:03:39;;;;;;;5.90;3.10;;;;;;;24.60;57.51;99247.88;1828908;77;20904;-73
2021/06/28 10:08:50;;;;;;;7.20;3.30;;;;;;;24.37;57.96;99255.03;1830118;76;21450;-73
2021/06/28 10:11:21;;;;;;;18.23;3.75;;;;;;;24.26;57.49;99253.75;1843343;77;21100;-72
2021/06/28 10:13:58;;;;;;;5.00;3.60;;;;;;;24.17;57.43;99257.69;1844559;77;21199;-73
2021/06/28 10:16:28;;;;;;;4.20;2.85;;;;;;;24.08;57.33;99262.37;1823700;77;20897;-72
2021/06/28 10:18:55;;;;;;;5.50;3.00;;;;;;;24.03;57.43;99259.42;1840232;77;20955;-73
2021/06/28 10:21:22;;;;;;;6.58;3.00;;;;;;;23.98;57.63;99259.88;1828091;77;21493;-71
2021/06/28 10:23:49;;;;;;;6.15;3.42;;;;;;;24.03;58.29;99253.80;1818457;77;21478;-74
2021/06/28 10:26:16;;;;;;;3.72;2.42;;;;;;;24.13;59.74;99254.89;1825390;77;21403;-72
2021/06/28 10:28:44;;;;;;;4.40;3.17;;;;;;;24.36;59.12;99252.64;1834212;76;20855;-73
2021/06/28 10:31:12;;;;;;;7.80;2.80;;;;;;;24.63;58.87;99260.33;1826458;77;20924;-74
2021/06/28 10:33:41;;;;;;;3.67;3.02;;;;;;;24.83;56.74;99249.17;1834388;77;20953;-74
2021/06/28 10:36:11;;;;;;;6.08;2.70;;;;;;;24.94;56.26;99254.69;1829300;77;21158;-76
2021/06/28 10:38:54;;;;;;;3.55;2.80;;;;;;;24.98;55.98;99256.02;1833382;77;20873;-73
2021/06/28 10:41:42;;;;;;;5.58;3.00;;;;;;;24.87;56.54;99254.75;1833528;77;20923;-76
2021/06/28 10:44:13;;;;;;;8.65;3.10;;;;;;;24.76;56.29;99268.98;1842486;77;20840;-74
2021/06/28 10:46:44;;;;;;;6.03;3.00;;;;;;;24.63;56.77;99256.09;1826307;77;20877;-77
2021/06/28 10:49:13;;;;;;;13.00;2.52;;;;;;;24.58;56.59;99255.16;1846317;77;21061;-75
2021/06/28 10:51:49;;;;;;;9.18;3.80;;;;;;;24.53;56.19;99264.88;1826312;77;20847;-73
2021/06/28 10:54:19;;;;;;;2.75;2.52;;;;;;;24.44;56.69;99265.39;1826861;77;21414;-72
2021/06/28 10:56:51;;;;;;;12.82;3.02;;;;;;;24.36;55.59;99270.30;1819025;77;20912;-74
2021/06/28 10:59:19;;;;;;;3.50;2.80;;;;;;;24.27;55.64;99268.02;1824916;77;21395;-78
2021/06/28 11:01:59;;;;;;;3.92;2.30;;;;;;;24.27;55.77;99272.25;1838692;77;21133;-72
2021/06/28 11:04:34;;;;;;;5.37;2.72;;;;;;;24.33;57.59;99262.70;1824190;77;20968;-73
2021/06/28 11:07:10;;;;;;;6.62;2.67;;;;;;;24.55;58.75;99268.86;1824607;77;21454;-73
2021/06/28 11:09:43;;;;;;;6.30;2.62;;;;;;;24.80;56.68;99261.30;1823069;78;20933;-74
2021/06/28 11:12:31;;;;;;;4.75;2.67;;;;;;;24.95;56.12;99270.35;1818010;77;20893;-74
2021/06/28 11:15:09;;;;;;;5.92;2.83;;;;;;;25.06;56.06;99258.12;1815238;78;21049;-73
2021/06/28 11:17:51;;;;;;;6.53;2.70;;;;;;;25.22;55.20;99257.45;1817688;77;20953;-74
2021/06/28 11:20:32;;;;;;;2.33;2.05;;;;;;;25.31;54.89;99248.45;1836602;77;20911;-73
2021/06/28 11:23:10;;;;;;;5.33;2.25;;;;;;;25.38;53.91;99256.80;1839263;77;20923;-72
2021/06/28 11:25:44;;;;;;;5.12;2.50;;;;;;;25.33;52.46;99260.10;1814705;78;20956;-73
2021/06/28 11:28:18;;;;;;;3.17;2.42;;;;;;;25.24;52.40;99260.64;1816945;78;21058;-73
2021/06/28 11:30:46;;;;;;;;;;;;;;;25.33;52.19;99247.42;1844440;77;20867;-72
2021/06/28 11:33:14;;;;;;;2.87;2.20;;;;;;;25.45;53.15;99251.65;1818833;78;20091;-72
2021/06/28 11:35:50;;;;;;;3.65;2.22;;;;;;;25.48;51.54;99249.38;1852342;77;20872;-71
2021/06/28 11:38:29;;;;;;;9.83;3.33;;;;;;;25.40;51.44;99253.72;1817062;78;21674;-72
2021/06/28 11:40:58;;;;;;;2.45;2.10;;;;;;;25.54;52.79;99247.64;1808108;77;21453;-73